Sitc Zhoushan — VRML9 — position and weather

sailwx.info

Track history (hours):
 
Tides and Currents Weather Stations Pressure Air Temp Water Temp Dewpoint Dewpoint Depression Visibility Wind Speed Wind Dir Waves Ship Positions

Sitc Zhoushan

Last reported at 2017-Aug-22 16:37 UTC. Time now 2017-Sep-21 07:13 UTC.
Position N 24°21' W 016°24'.
Warning: this ship's position is 29 days out of date.

Length 225 m; draft 7.4 m.

Type: Cargo ship. MMSI: 477652600.

Date/timePositionNaut miles runAvg speedWind from/ knotsBaromVisibWave heightAir tempDewpointWater temp
2017-Aug-22 16:37N 24°21' W 016°24'314.3
2017-Aug-22 16:23N 24°24' W 016°22'8414.2
2017-Aug-22 10:27N 25°32' W 015°28'613.9
2017-Aug-22 10:00N 25°37' W 015°24'713.8
2017-Aug-22 09:30N 25°43' W 015°19'713.7
2017-Aug-22 09:00N 25°48' W 015°15'713.6
2017-Aug-22 08:30N 25°54' W 015°11'713.5
2017-Aug-22 07:58N 25°60' W 015°06'613.4
2017-Aug-22 07:30N 26°05' W 015°02'713.4
2017-Aug-22 07:00N 26°10' W 014°58'713.3
2017-Aug-22 06:29N 26°16' W 014°53'613.2
2017-Aug-22 06:00N 26°21' W 014°49'713.1
2017-Aug-22 05:30N 26°26' W 014°45'713.3
2017-Aug-22 05:00N 26°32' W 014°41'713.7
2017-Aug-22 04:30N 26°38' W 014°36'713.6
2017-Aug-22 03:59N 26°43' W 014°32'713.5
2017-Aug-22 03:30N 26°49' W 014°27'613.0
2017-Aug-22 03:00N 26°54' W 014°23'713.5
2017-Aug-22 02:30N 26°59' W 014°19'713.6
2017-Aug-22 02:00N 27°05' W 014°15'713.6
2017-Aug-22 01:30N 27°10' W 014°10'713.7
2017-Aug-22 01:00N 27°16' W 014°06'713.9
2017-Aug-22 00:30N 27°21' W 014°01'813.9
2017-Aug-21 23:58N 27°27' W 013°56'614.0
2017-Aug-21 23:30N 27°33' W 013°51'713.8
2017-Aug-21 23:00N 27°39' W 013°47'713.6
2017-Aug-21 22:30N 27°44' W 013°43'713.9
2017-Aug-21 22:00N 27°50' W 013°38'713.9
2017-Aug-21 21:30N 27°55' W 013°33'713.7
2017-Aug-21 21:00N 28°01' W 013°29'713.6
2017-Aug-21 20:30N 28°07' W 013°25'713.6
2017-Aug-21 20:00N 28°12' W 013°20'713.7
2017-Aug-21 19:31N 28°17' W 013°15'713.4
2017-Aug-21 19:01N 28°23' W 013°11'713.8
2017-Aug-21 18:31N 28°28' W 013°06'714.1
2017-Aug-21 18:00N 28°34' W 013°01'714.2
2017-Aug-21 17:31N 28°40' W 012°57'713.7
2017-Aug-21 17:01N 28°45' W 012°52'713.5
2017-Aug-21 16:31N 28°51' W 012°47'713.5
2017-Aug-21 16:00N 28°56' W 012°43'713.6
2017-Aug-21 15:30N 29°01' W 012°38'713.7
2017-Aug-21 15:01N 29°07' W 012°33'713.5
2017-Aug-21 14:31N 29°12' W 012°28'713.6
2017-Aug-21 14:00N 29°17' W 012°23'713.7
2017-Aug-21 13:30N 29°23' W 012°19'713.4
2017-Aug-21 13:00N 29°28' W 012°14'713.3
2017-Aug-21 12:30N 29°33' W 012°09'2013.2
2017-Aug-21 10:59N 29°50' W 011°56'2913.3
2017-Aug-21 08:50N 30°13' W 011°36'613.4
2017-Aug-21 08:24N 30°17' W 011°32'613.5
2017-Aug-21 07:59N 30°21' W 011°28'1913.4
2017-Aug-21 06:34N 30°36' W 011°15'113.1
2017-Aug-21 06:28N 30°37' W 011°14'612.9
2017-Aug-21 05:59N 30°43' W 011°09'1112.9
2017-Aug-21 05:07N 30°52' W 011°02'313.2
2017-Aug-21 04:53N 30°54' W 010°60'1313.2
2017-Aug-21 03:56N 31°04' W 010°51'813.0
2017-Aug-21 03:19N 31°11' W 010°45'413.7
2017-Aug-21 03:00N 31°14' W 010°42'713.4
2017-Aug-21 02:28N 31°20' W 010°37'713.9
2017-Aug-21 01:57N 31°25' W 010°32'613.4
2017-Aug-21 01:30N 31°30' W 010°28'713.2
2017-Aug-21 01:00N 31°36' W 010°23'913.3
2017-Aug-21 00:19N 31°43' W 010°17'413.2
2017-Aug-21 00:00N 31°46' W 010°14'713.2
2017-Aug-20 23:30N 31°51' W 010°09'713.5
2017-Aug-20 23:00N 31°57' W 010°04'1113.9
2017-Aug-20 22:14N 32°05' W 009°57'313.8
2017-Aug-20 21:59N 32°08' W 009°54'713.9
2017-Aug-20 21:28N 32°14' W 009°49'1113.9
2017-Aug-20 20:40N 32°23' W 009°41'214.5
2017-Aug-20 20:30N 32°24' W 009°40'714.2
2017-Aug-20 19:59N 32°30' W 009°34'2813.6
2017-Aug-20 17:54N 32°52' W 009°12'713.7
2017-Aug-20 17:24N 32°57' W 009°07'613.9
2017-Aug-20 16:58N 33°02' W 009°02'1214.1
2017-Aug-20 16:06N 33°11' W 008°52'214.1
2017-Aug-20 15:59N 33°12' W 008°51'714.0
2017-Aug-20 15:28N 33°17' W 008°46'713.8
2017-Aug-20 15:00N 33°22' W 008°41'714.0
2017-Aug-20 14:30N 33°27' W 008°35'714.1
2017-Aug-20 14:00N 33°33' W 008°29'714.2
2017-Aug-20 13:30N 33°38' W 008°24'714.3
2017-Aug-20 13:00N 33°43' W 008°18'814.3
2017-Aug-20 12:28N 33°49' W 008°12'714.2
2017-Aug-20 12:00N 33°54' W 008°06'5713.0
2017-Aug-20 07:37N 34°36' W 007°20'212.5
2017-Aug-20 07:25N 34°38' W 007°18'512.6
2017-Aug-20 07:00N 34°42' W 007°14'812.4
2017-Aug-20 06:20N 34°49' W 007°08'812.4
2017-Aug-20 05:43N 34°54' W 007°01'312.5
2017-Aug-20 05:30N 34°56' W 006°59'1012.5
2017-Aug-20 04:43N 35°04' W 006°51'211.9
2017-Aug-20 04:30N 35°06' W 006°49'612.3
2017-Aug-20 04:00N 35°10' W 006°44'712.7
2017-Aug-20 03:29N 35°15' W 006°39'5013.0
2017-Aug-19 23:38N 35°52' W 005°58'1813.4
2017-Aug-19 22:16N 35°58' W 005°36'413.6
2017-Aug-19 22:00N 35°59' W 005°32'612.2
2017-Aug-19 21:30N 36°01' W 005°25'612.4
2017-Aug-19 21:00N 36°07' W 005°24'3 5.5
2017-Aug-19 20:30N 36°10' W 005°24'0 0.1
2017-Aug-19 19:59N 36°10' W 005°24'0 0.1
2017-Aug-19 19:29N 36°10' W 005°24'0 0.0
2017-Aug-19 18:47N 36°10' W 005°24'0 0.0
2017-Aug-19 18:20N 36°10' W 005°24'0 0.0
2017-Aug-19 15:44N 36°10' W 005°24'0 0.1
2017-Aug-19 15:29N 36°10' W 005°24'0 0.1
2017-Aug-19 14:56N 36°10' W 005°24'0 0.0
2017-Aug-19 13:56N 36°10' W 005°24'0 0.0
2017-Aug-19 13:29N 36°10' W 005°24'0 0.1
2017-Aug-19 12:53N 36°10' W 005°24'0 0.0
2017-Aug-19 12:23N 36°10' W 005°24'0 0.1
2017-Aug-19 11:59N 36°10' W 005°24'0 0.0
2017-Aug-19 05:38N 36°10' W 005°24'0 0.1
2017-Aug-19 05:25N 36°10' W 005°24'0 0.1
2017-Aug-19 04:51N 36°10' W 005°24'1 2.3
2017-Aug-19 04:30N 36°09' W 005°24'2 4.3
2017-Aug-19 03:58N 36°07' W 005°24'0 0.1
2017-Aug-19 03:22N 36°07' W 005°24'0 0.3
2017-Aug-19 03:00N 36°07' W 005°24'1 1.0
2017-Aug-19 02:29N 36°07' W 005°24'4 7.3
2017-Aug-19 02:01N 36°03' W 005°23'1 1.7
2017-Aug-19 01:31N 36°04' W 005°22'4 8.6
2017-Aug-19 01:01N 36°05' W 005°17'13512.5
2017-Aug-18 14:13N 36°24' W 002°31'912.8
2017-Aug-18 13:30N 36°25' W 002°20'612.9
2017-Aug-18 13:00N 36°26' W 002°12'912.4
2017-Aug-18 12:18N 36°30' W 002°03'3313.2
2017-Aug-18 09:50N 36°48' W 001°29'513.5
2017-Aug-18 09:27N 36°51' W 001°23'1913.5
2017-Aug-18 08:02N 37°01' W 001°03'413.4
2017-Aug-18 07:45N 37°03' W 000°59'313.3
2017-Aug-18 07:30N 37°05' W 000°56'713.4
2017-Aug-18 07:01N 37°09' W 000°49'25013.1
2017-Aug-17 11:56N 39°24' E 003°40'613.2
2017-Aug-17 11:30N 39°27' E 003°46'713.4
2017-Aug-17 10:59N 39°31' E 003°53'613.2
2017-Aug-17 10:29N 39°34' E 004°01'713.3
2017-Aug-17 09:56N 39°38' E 004°09'613.3
2017-Aug-17 09:28N 39°41' E 004°16'713.2
2017-Aug-17 08:57N 39°44' E 004°23'6213.1
2017-Aug-17 04:14N 40°09' E 005°38'313.4
2017-Aug-17 03:59N 40°11' E 005°41'1213.6
2017-Aug-17 03:05N 40°16' E 005°56'113.5
2017-Aug-17 03:00N 40°16' E 005°57'813.3
2017-Aug-17 02:23N 40°20' E 006°07'1413.5
2017-Aug-17 01:22N 40°26' E 006°23'513.5
2017-Aug-17 00:59N 40°28' E 006°29'613.3
2017-Aug-17 00:30N 40°31' E 006°37'713.0
2017-Aug-17 00:00N 40°34' E 006°44'3613.2
2017-Aug-16 21:17N 40°51' E 007°26'713.5
2017-Aug-16 20:45N 40°54' E 007°35'313.6
2017-Aug-16 20:30N 40°56' E 007°38'1513.4
2017-Aug-16 19:24N 41°03' E 007°56'1313.6
2017-Aug-16 18:27N 41°10' E 008°10'613.4
2017-Aug-16 18:00N 41°13' E 008°17'1313.5
2017-Aug-16 17:02N 41°15' E 008°35'013.7
2017-Aug-16 17:00N 41°15' E 008°35'713.5
2017-Aug-16 16:30N 41°16' E 008°44'5412.6
2017-Aug-16 12:13N 41°31' E 009°53'313.0
2017-Aug-16 12:00N 41°33' E 009°56'713.1
2017-Aug-16 11:30N 41°35' E 010°04'612.6
2017-Aug-16 11:00N 41°38' E 010°12'612.5
2017-Aug-16 10:30N 41°40' E 010°20'1112.6
2017-Aug-16 09:36N 41°45' E 010°33'813.4
2017-Aug-16 09:00N 41°48' E 010°44'1013.8
2017-Aug-16 08:17N 41°51' E 010°56'413.7
2017-Aug-16 08:00N 41°53' E 011°01'913.6
2017-Aug-16 07:22N 41°56' E 011°11'  
Track history (hours):
 
Tides and Currents Weather Stations Pressure Air Temp Water Temp Dewpoint Dewpoint Depression Visibility Wind Speed Wind Dir Waves Ship Positions

Sitc Zhoushan

Last reported at 2017-Aug-22 16:37 UTC. Time now 2017-Sep-21 07:13 UTC.
Position N 24°21' W 016°24'.
Warning: this ship's position is 29 days out of date.

Length 225 m; draft 7.4 m.

Type: Cargo ship. MMSI: 477652600.

Date/timePositionNaut miles runAvg speedWind from/ knotsBaromVisibWave heightAir tempDewpointWater temp
2017-Aug-22 16:37N 24°21' W 016°24'314.3
2017-Aug-22 16:23N 24°24' W 016°22'8414.2
2017-Aug-22 10:27N 25°32' W 015°28'613.9
2017-Aug-22 10:00N 25°37' W 015°24'713.8
2017-Aug-22 09:30N 25°43' W 015°19'713.7
2017-Aug-22 09:00N 25°48' W 015°15'713.6
2017-Aug-22 08:30N 25°54' W 015°11'713.5
2017-Aug-22 07:58N 25°60' W 015°06'613.4
2017-Aug-22 07:30N 26°05' W 015°02'713.4
2017-Aug-22 07:00N 26°10' W 014°58'713.3
2017-Aug-22 06:29N 26°16' W 014°53'613.2
2017-Aug-22 06:00N 26°21' W 014°49'713.1
2017-Aug-22 05:30N 26°26' W 014°45'713.3
2017-Aug-22 05:00N 26°32' W 014°41'713.7
2017-Aug-22 04:30N 26°38' W 014°36'713.6
2017-Aug-22 03:59N 26°43' W 014°32'713.5
2017-Aug-22 03:30N 26°49' W 014°27'613.0
2017-Aug-22 03:00N 26°54' W 014°23'713.5
2017-Aug-22 02:30N 26°59' W 014°19'713.6
2017-Aug-22 02:00N 27°05' W 014°15'713.6
2017-Aug-22 01:30N 27°10' W 014°10'713.7
2017-Aug-22 01:00N 27°16' W 014°06'713.9
2017-Aug-22 00:30N 27°21' W 014°01'813.9
2017-Aug-21 23:58N 27°27' W 013°56'614.0
2017-Aug-21 23:30N 27°33' W 013°51'713.8
2017-Aug-21 23:00N 27°39' W 013°47'713.6
2017-Aug-21 22:30N 27°44' W 013°43'713.9
2017-Aug-21 22:00N 27°50' W 013°38'713.9
2017-Aug-21 21:30N 27°55' W 013°33'713.7
2017-Aug-21 21:00N 28°01' W 013°29'713.6
2017-Aug-21 20:30N 28°07' W 013°25'713.6
2017-Aug-21 20:00N 28°12' W 013°20'713.7
2017-Aug-21 19:31N 28°17' W 013°15'713.4
2017-Aug-21 19:01N 28°23' W 013°11'713.8
2017-Aug-21 18:31N 28°28' W 013°06'714.1
2017-Aug-21 18:00N 28°34' W 013°01'714.2
2017-Aug-21 17:31N 28°40' W 012°57'713.7
2017-Aug-21 17:01N 28°45' W 012°52'713.5
2017-Aug-21 16:31N 28°51' W 012°47'713.5
2017-Aug-21 16:00N 28°56' W 012°43'713.6
2017-Aug-21 15:30N 29°01' W 012°38'713.7
2017-Aug-21 15:01N 29°07' W 012°33'713.5
2017-Aug-21 14:31N 29°12' W 012°28'713.6
2017-Aug-21 14:00N 29°17' W 012°23'713.7
2017-Aug-21 13:30N 29°23' W 012°19'713.4
2017-Aug-21 13:00N 29°28' W 012°14'713.3
2017-Aug-21 12:30N 29°33' W 012°09'2013.2
2017-Aug-21 10:59N 29°50' W 011°56'2913.3
2017-Aug-21 08:50N 30°13' W 011°36'613.4
2017-Aug-21 08:24N 30°17' W 011°32'613.5
2017-Aug-21 07:59N 30°21' W 011°28'1913.4
2017-Aug-21 06:34N 30°36' W 011°15'113.1
2017-Aug-21 06:28N 30°37' W 011°14'612.9
2017-Aug-21 05:59N 30°43' W 011°09'1112.9
2017-Aug-21 05:07N 30°52' W 011°02'313.2
2017-Aug-21 04:53N 30°54' W 010°60'1313.2
2017-Aug-21 03:56N 31°04' W 010°51'813.0
2017-Aug-21 03:19N 31°11' W 010°45'413.7
2017-Aug-21 03:00N 31°14' W 010°42'713.4
2017-Aug-21 02:28N 31°20' W 010°37'713.9
2017-Aug-21 01:57N 31°25' W 010°32'613.4
2017-Aug-21 01:30N 31°30' W 010°28'713.2
2017-Aug-21 01:00N 31°36' W 010°23'913.3
2017-Aug-21 00:19N 31°43' W 010°17'413.2
2017-Aug-21 00:00N 31°46' W 010°14'713.2
2017-Aug-20 23:30N 31°51' W 010°09'713.5
2017-Aug-20 23:00N 31°57' W 010°04'1113.9
2017-Aug-20 22:14N 32°05' W 009°57'313.8
2017-Aug-20 21:59N 32°08' W 009°54'713.9
2017-Aug-20 21:28N 32°14' W 009°49'1113.9
2017-Aug-20 20:40N 32°23' W 009°41'214.5
2017-Aug-20 20:30N 32°24' W 009°40'714.2
2017-Aug-20 19:59N 32°30' W 009°34'2813.6
2017-Aug-20 17:54N 32°52' W 009°12'713.7
2017-Aug-20 17:24N 32°57' W 009°07'613.9
2017-Aug-20 16:58N 33°02' W 009°02'1214.1
2017-Aug-20 16:06N 33°11' W 008°52'214.1
2017-Aug-20 15:59N 33°12' W 008°51'714.0
2017-Aug-20 15:28N 33°17' W 008°46'713.8
2017-Aug-20 15:00N 33°22' W 008°41'714.0
2017-Aug-20 14:30N 33°27' W 008°35'714.1
2017-Aug-20 14:00N 33°33' W 008°29'714.2
2017-Aug-20 13:30N 33°38' W 008°24'714.3
2017-Aug-20 13:00N 33°43' W 008°18'814.3
2017-Aug-20 12:28N 33°49' W 008°12'714.2
2017-Aug-20 12:00N 33°54' W 008°06'5713.0
2017-Aug-20 07:37N 34°36' W 007°20'212.5
2017-Aug-20 07:25N 34°38' W 007°18'512.6
2017-Aug-20 07:00N 34°42' W 007°14'812.4
2017-Aug-20 06:20N 34°49' W 007°08'812.4
2017-Aug-20 05:43N 34°54' W 007°01'312.5
2017-Aug-20 05:30N 34°56' W 006°59'1012.5
2017-Aug-20 04:43N 35°04' W 006°51'211.9
2017-Aug-20 04:30N 35°06' W 006°49'612.3
2017-Aug-20 04:00N 35°10' W 006°44'712.7
2017-Aug-20 03:29N 35°15' W 006°39'5013.0
2017-Aug-19 23:38N 35°52' W 005°58'1813.4
2017-Aug-19 22:16N 35°58' W 005°36'413.6
2017-Aug-19 22:00N 35°59' W 005°32'612.2
2017-Aug-19 21:30N 36°01' W 005°25'612.4
2017-Aug-19 21:00N 36°07' W 005°24'3 5.5
2017-Aug-19 20:30N 36°10' W 005°24'0 0.1
2017-Aug-19 19:59N 36°10' W 005°24'0 0.1
2017-Aug-19 19:29N 36°10' W 005°24'0 0.0
2017-Aug-19 18:47N 36°10' W 005°24'0 0.0
2017-Aug-19 18:20N 36°10' W 005°24'0 0.0
2017-Aug-19 15:44N 36°10' W 005°24'0 0.1
2017-Aug-19 15:29N 36°10' W 005°24'0 0.1
2017-Aug-19 14:56N 36°10' W 005°24'0 0.0
2017-Aug-19 13:56N 36°10' W 005°24'0 0.0
2017-Aug-19 13:29N 36°10' W 005°24'0 0.1
2017-Aug-19 12:53N 36°10' W 005°24'0 0.0
2017-Aug-19 12:23N 36°10' W 005°24'0 0.1
2017-Aug-19 11:59N 36°10' W 005°24'0 0.0
2017-Aug-19 05:38N 36°10' W 005°24'0 0.1
2017-Aug-19 05:25N 36°10' W 005°24'0 0.1
2017-Aug-19 04:51N 36°10' W 005°24'1 2.3
2017-Aug-19 04:30N 36°09' W 005°24'2 4.3
2017-Aug-19 03:58N 36°07' W 005°24'0 0.1
2017-Aug-19 03:22N 36°07' W 005°24'0 0.3
2017-Aug-19 03:00N 36°07' W 005°24'1 1.0
2017-Aug-19 02:29N 36°07' W 005°24'4 7.3
2017-Aug-19 02:01N 36°03' W 005°23'1 1.7
2017-Aug-19 01:31N 36°04' W 005°22'4 8.6
2017-Aug-19 01:01N 36°05' W 005°17'13512.5
2017-Aug-18 14:13N 36°24' W 002°31'912.8
2017-Aug-18 13:30N 36°25' W 002°20'612.9
2017-Aug-18 13:00N 36°26' W 002°12'912.4
2017-Aug-18 12:18N 36°30' W 002°03'3313.2
2017-Aug-18 09:50N 36°48' W 001°29'513.5
2017-Aug-18 09:27N 36°51' W 001°23'1913.5
2017-Aug-18 08:02N 37°01' W 001°03'413.4
2017-Aug-18 07:45N 37°03' W 000°59'313.3
2017-Aug-18 07:30N 37°05' W 000°56'713.4
2017-Aug-18 07:01N 37°09' W 000°49'25013.1
2017-Aug-17 11:56N 39°24' E 003°40'613.2
2017-Aug-17 11:30N 39°27' E 003°46'713.4
2017-Aug-17 10:59N 39°31' E 003°53'613.2
2017-Aug-17 10:29N 39°34' E 004°01'713.3
2017-Aug-17 09:56N 39°38' E 004°09'613.3
2017-Aug-17 09:28N 39°41' E 004°16'713.2
2017-Aug-17 08:57N 39°44' E 004°23'6213.1
2017-Aug-17 04:14N 40°09' E 005°38'313.4
2017-Aug-17 03:59N 40°11' E 005°41'1213.6
2017-Aug-17 03:05N 40°16' E 005°56'113.5
2017-Aug-17 03:00N 40°16' E 005°57'813.3
2017-Aug-17 02:23N 40°20' E 006°07'1413.5
2017-Aug-17 01:22N 40°26' E 006°23'513.5
2017-Aug-17 00:59N 40°28' E 006°29'613.3
2017-Aug-17 00:30N 40°31' E 006°37'713.0
2017-Aug-17 00:00N 40°34' E 006°44'3613.2
2017-Aug-16 21:17N 40°51' E 007°26'713.5
2017-Aug-16 20:45N 40°54' E 007°35'313.6
2017-Aug-16 20:30N 40°56' E 007°38'1513.4
2017-Aug-16 19:24N 41°03' E 007°56'1313.6
2017-Aug-16 18:27N 41°10' E 008°10'613.4
2017-Aug-16 18:00N 41°13' E 008°17'1313.5
2017-Aug-16 17:02N 41°15' E 008°35'013.7
2017-Aug-16 17:00N 41°15' E 008°35'713.5
2017-Aug-16 16:30N 41°16' E 008°44'5412.6
2017-Aug-16 12:13N 41°31' E 009°53'313.0
2017-Aug-16 12:00N 41°33' E 009°56'713.1
2017-Aug-16 11:30N 41°35' E 010°04'612.6
2017-Aug-16 11:00N 41°38' E 010°12'612.5
2017-Aug-16 10:30N 41°40' E 010°20'1112.6
2017-Aug-16 09:36N 41°45' E 010°33'813.4
2017-Aug-16 09:00N 41°48' E 010°44'1013.8
2017-Aug-16 08:17N 41°51' E 010°56'413.7
2017-Aug-16 08:00N 41°53' E 011°01'913.6
2017-Aug-16 07:22N 41°56' E 011°11'  

Dump ship's entire track history